J. George Betz — WDC7596 — position and weather

sailwx.info

Track history (hours):
 
Tides and Currents Weather Stations Pressure Air Temp Water Temp Dewpoint Dewpoint Depression Visibility Wind Speed Wind Dir Waves Ship Positions

J. George Betz

Owner: Tug J. George Betz, Melville, NY. More information available from US FCC via Universal Licensing System and Coast Guard Vessel Documentation Center.

Last reported at 2017-Sep-01 18:17 UTC. Time now 2017-Sep-26 11:05 UTC.
Position N 25°33' W 080°02'.
Warning: this ship's position is 24 days out of date.

Length 176 m; draft 7.4 m.

Type: Ship. MMSI: 367073820.

Date/timePositionNaut miles runAvg speedWind from/ knotsBaromVisibWave heightAir tempDewpointWater temp
2017-Sep-01 18:17N 25°33' W 080°02'2 6.1
2017-Sep-01 17:58N 25°35' W 080°02'3 6.2
2017-Sep-01 17:30N 25°38' W 080°02'3 6.1
2017-Sep-01 17:00N 25°41' W 080°02'3 6.0
2017-Sep-01 16:31N 25°44' W 080°01'3 5.9
2017-Sep-01 16:00N 25°47' W 080°02'3 7.0
2017-Sep-01 15:30N 25°50' W 080°02'3 6.3
2017-Sep-01 15:00N 25°53' W 080°02'3 6.5
2017-Sep-01 14:30N 25°57' W 080°02'3 6.7
2017-Sep-01 14:00N 25°60' W 080°02'3 6.8
2017-Sep-01 13:29N 26°03' W 080°02'3 6.9
2017-Sep-01 13:00N 26°07' W 080°01'3 6.7
2017-Sep-01 12:30N 26°10' W 080°01'42 6.6
2017-Sep-01 06:07N 26°52' W 079°60'1 6.4
2017-Sep-01 06:00N 26°53' W 080°00'3 6.3
2017-Sep-01 05:30N 26°56' W 080°00'  
2017-Aug-28 22:18N 26°20' W 079°49'311.8
2017-Aug-28 22:00N 26°17' W 079°50'611.7
2017-Aug-28 21:30N 26°11' W 079°51'611.9
2017-Aug-28 20:58N 26°05' W 079°53'611.9
2017-Aug-28 20:28N 25°59' W 079°54'511.7
2017-Aug-28 20:00N 25°54' W 079°57'611.0
2017-Aug-28 19:30N 25°50' W 080°01'5 9.7
2017-Aug-28 19:00N 25°46' W 080°05'3 6.5
2017-Aug-28 18:30N 25°46' W 080°08'0 0.3
2017-Aug-28 18:00N 25°46' W 080°09'0 0.0
2017-Aug-28 17:30N 25°46' W 080°09'0 0.0
2017-Aug-28 17:00N 25°46' W 080°09'0 0.0
2017-Aug-28 16:29N 25°46' W 080°09'0 0.0
2017-Aug-28 15:59N 25°46' W 080°09'0 0.0
2017-Aug-28 15:29N 25°46' W 080°09'0 0.0
2017-Aug-28 14:56N 25°46' W 080°09'0 0.0
2017-Aug-28 14:29N 25°46' W 080°09'0 0.0
2017-Aug-28 13:53N 25°46' W 080°09'0 0.0
2017-Aug-28 13:29N 25°46' W 080°09'0 0.0
2017-Aug-28 12:59N 25°46' W 080°09'0 0.0
2017-Aug-28 12:29N 25°46' W 080°09'0 0.0
2017-Aug-28 11:56N 25°46' W 080°09'0 0.0
2017-Aug-28 11:26N 25°46' W 080°09'0 0.0
2017-Aug-28 10:59N 25°46' W 080°09'0 0.0
2017-Aug-28 10:29N 25°46' W 080°09'0 0.0
2017-Aug-28 09:59N 25°46' W 080°09'0 0.0
2017-Aug-28 09:29N 25°46' W 080°09'0 0.0
2017-Aug-28 08:59N 25°46' W 080°09'0 0.0
2017-Aug-28 08:29N 25°46' W 080°09'0 0.0
2017-Aug-28 07:59N 25°46' W 080°09'0 0.0
2017-Aug-28 07:29N 25°46' W 080°09'0 0.0
2017-Aug-28 06:59N 25°46' W 080°09'0 0.0
2017-Aug-28 06:29N 25°46' W 080°09'0 0.0
2017-Aug-28 05:59N 25°46' W 080°09'0 0.0
2017-Aug-28 05:29N 25°46' W 080°09'0 0.0
2017-Aug-28 04:59N 25°46' W 080°09'0 0.0
2017-Aug-28 04:29N 25°46' W 080°09'0 0.0
2017-Aug-28 03:59N 25°46' W 080°09'0 0.0
2017-Aug-28 03:29N 25°46' W 080°09'0 0.0
2017-Aug-28 02:59N 25°46' W 080°09'0 0.0
2017-Aug-28 02:29N 25°46' W 080°09'0 0.0
2017-Aug-28 01:59N 25°46' W 080°09'0 0.0
2017-Aug-28 01:29N 25°46' W 080°09'0 0.0
2017-Aug-28 00:59N 25°46' W 080°09'0 0.0
2017-Aug-28 00:29N 25°46' W 080°09'0 0.0
2017-Aug-27 23:53N 25°46' W 080°09'0 0.0
2017-Aug-27 23:23N 25°46' W 080°09'0 0.0
2017-Aug-27 22:56N 25°46' W 080°09'0 0.0
2017-Aug-27 22:29N 25°46' W 080°09'0 0.0
2017-Aug-27 21:59N 25°46' W 080°09'0 0.0
2017-Aug-27 21:30N 25°46' W 080°09'0 0.7
2017-Aug-27 21:00N 25°46' W 080°08'3 5.8
2017-Aug-27 20:30N 25°46' W 080°05'3 5.1
2017-Aug-27 20:00N 25°47' W 080°03'2 4.7
2017-Aug-27 19:30N 25°49' W 080°01'2 3.9
2017-Aug-27 19:00N 25°47' W 080°00'3 7.0
2017-Aug-27 18:30N 25°44' W 080°00'5 9.5
2017-Aug-27 18:00N 25°39' W 079°60'  
2017-Aug-23 04:26N 29°32' W 094°54'5 7.2
2017-Aug-23 03:42N 29°36' W 094°57'3 6.9
2017-Aug-23 03:13N 29°39' W 094°58'  
Track history (hours):
 
Tides and Currents Weather Stations Pressure Air Temp Water Temp Dewpoint Dewpoint Depression Visibility Wind Speed Wind Dir Waves Ship Positions

J. George Betz

Owner: Tug J. George Betz, Melville, NY. More information available from US FCC via Universal Licensing System and Coast Guard Vessel Documentation Center.

Last reported at 2017-Sep-01 18:17 UTC. Time now 2017-Sep-26 11:05 UTC.
Position N 25°33' W 080°02'.
Warning: this ship's position is 24 days out of date.

Length 176 m; draft 7.4 m.

Type: Ship. MMSI: 367073820.

Date/timePositionNaut miles runAvg speedWind from/ knotsBaromVisibWave heightAir tempDewpointWater temp
2017-Sep-01 18:17N 25°33' W 080°02'2 6.1
2017-Sep-01 17:58N 25°35' W 080°02'3 6.2
2017-Sep-01 17:30N 25°38' W 080°02'3 6.1
2017-Sep-01 17:00N 25°41' W 080°02'3 6.0
2017-Sep-01 16:31N 25°44' W 080°01'3 5.9
2017-Sep-01 16:00N 25°47' W 080°02'3 7.0
2017-Sep-01 15:30N 25°50' W 080°02'3 6.3
2017-Sep-01 15:00N 25°53' W 080°02'3 6.5
2017-Sep-01 14:30N 25°57' W 080°02'3 6.7
2017-Sep-01 14:00N 25°60' W 080°02'3 6.8
2017-Sep-01 13:29N 26°03' W 080°02'3 6.9
2017-Sep-01 13:00N 26°07' W 080°01'3 6.7
2017-Sep-01 12:30N 26°10' W 080°01'42 6.6
2017-Sep-01 06:07N 26°52' W 079°60'1 6.4
2017-Sep-01 06:00N 26°53' W 080°00'3 6.3
2017-Sep-01 05:30N 26°56' W 080°00'  
2017-Aug-28 22:18N 26°20' W 079°49'311.8
2017-Aug-28 22:00N 26°17' W 079°50'611.7
2017-Aug-28 21:30N 26°11' W 079°51'611.9
2017-Aug-28 20:58N 26°05' W 079°53'611.9
2017-Aug-28 20:28N 25°59' W 079°54'511.7
2017-Aug-28 20:00N 25°54' W 079°57'611.0
2017-Aug-28 19:30N 25°50' W 080°01'5 9.7
2017-Aug-28 19:00N 25°46' W 080°05'3 6.5
2017-Aug-28 18:30N 25°46' W 080°08'0 0.3
2017-Aug-28 18:00N 25°46' W 080°09'0 0.0
2017-Aug-28 17:30N 25°46' W 080°09'0 0.0
2017-Aug-28 17:00N 25°46' W 080°09'0 0.0
2017-Aug-28 16:29N 25°46' W 080°09'0 0.0
2017-Aug-28 15:59N 25°46' W 080°09'0 0.0
2017-Aug-28 15:29N 25°46' W 080°09'0 0.0
2017-Aug-28 14:56N 25°46' W 080°09'0 0.0
2017-Aug-28 14:29N 25°46' W 080°09'0 0.0
2017-Aug-28 13:53N 25°46' W 080°09'0 0.0
2017-Aug-28 13:29N 25°46' W 080°09'0 0.0
2017-Aug-28 12:59N 25°46' W 080°09'0 0.0
2017-Aug-28 12:29N 25°46' W 080°09'0 0.0
2017-Aug-28 11:56N 25°46' W 080°09'0 0.0
2017-Aug-28 11:26N 25°46' W 080°09'0 0.0
2017-Aug-28 10:59N 25°46' W 080°09'0 0.0
2017-Aug-28 10:29N 25°46' W 080°09'0 0.0
2017-Aug-28 09:59N 25°46' W 080°09'0 0.0
2017-Aug-28 09:29N 25°46' W 080°09'0 0.0
2017-Aug-28 08:59N 25°46' W 080°09'0 0.0
2017-Aug-28 08:29N 25°46' W 080°09'0 0.0
2017-Aug-28 07:59N 25°46' W 080°09'0 0.0
2017-Aug-28 07:29N 25°46' W 080°09'0 0.0
2017-Aug-28 06:59N 25°46' W 080°09'0 0.0
2017-Aug-28 06:29N 25°46' W 080°09'0 0.0
2017-Aug-28 05:59N 25°46' W 080°09'0 0.0
2017-Aug-28 05:29N 25°46' W 080°09'0 0.0
2017-Aug-28 04:59N 25°46' W 080°09'0 0.0
2017-Aug-28 04:29N 25°46' W 080°09'0 0.0
2017-Aug-28 03:59N 25°46' W 080°09'0 0.0
2017-Aug-28 03:29N 25°46' W 080°09'0 0.0
2017-Aug-28 02:59N 25°46' W 080°09'0 0.0
2017-Aug-28 02:29N 25°46' W 080°09'0 0.0
2017-Aug-28 01:59N 25°46' W 080°09'0 0.0
2017-Aug-28 01:29N 25°46' W 080°09'0 0.0
2017-Aug-28 00:59N 25°46' W 080°09'0 0.0
2017-Aug-28 00:29N 25°46' W 080°09'0 0.0
2017-Aug-27 23:53N 25°46' W 080°09'0 0.0
2017-Aug-27 23:23N 25°46' W 080°09'0 0.0
2017-Aug-27 22:56N 25°46' W 080°09'0 0.0
2017-Aug-27 22:29N 25°46' W 080°09'0 0.0
2017-Aug-27 21:59N 25°46' W 080°09'0 0.0
2017-Aug-27 21:30N 25°46' W 080°09'0 0.7
2017-Aug-27 21:00N 25°46' W 080°08'3 5.8
2017-Aug-27 20:30N 25°46' W 080°05'3 5.1
2017-Aug-27 20:00N 25°47' W 080°03'2 4.7
2017-Aug-27 19:30N 25°49' W 080°01'2 3.9
2017-Aug-27 19:00N 25°47' W 080°00'3 7.0
2017-Aug-27 18:30N 25°44' W 080°00'5 9.5
2017-Aug-27 18:00N 25°39' W 079°60'  
2017-Aug-23 04:26N 29°32' W 094°54'5 7.2
2017-Aug-23 03:42N 29°36' W 094°57'3 6.9
2017-Aug-23 03:13N 29°39' W 094°58'  

Dump ship's entire track history